sensor_id;sensor_type;location;lat;lon;timestamp;temperature;humidity
6841;DHT22;3458;53.678;14.080;2023-10-19T00:00:54;7.10;99.90
6841;DHT22;3458;53.678;14.080;2023-10-19T00:03:22;7.00;99.90
6841;DHT22;3458;53.678;14.080;2023-10-19T00:05:49;7.00;99.90
6841;DHT22;3458;53.678;14.080;2023-10-19T00:08:15;7.00;99.90
6841;DHT22;3458;53.678;14.080;2023-10-19T00:10:47;7.00;99.90
6841;DHT22;3458;53.678;14.080;2023-10-19T00:13:15;7.00;99.90
6841;DHT22;3458;53.678;14.080;2023-10-19T00:15:42;7.00;99.90
6841;DHT22;3458;53.678;14.080;2023-10-19T00:18:17;7.00;99.90
6841;DHT22;3458;53.678;14.080;2023-10-19T00:20:44;7.00;99.90
6841;DHT22;3458;53.678;14.080;2023-10-19T00:23:13;7.00;99.90
6841;DHT22;3458;53.678;14.080;2023-10-19T00:25:42;7.00;99.90
6841;DHT22;3458;53.678;14.080;2023-10-19T00:28:08;7.00;99.90
6841;DHT22;3458;53.678;14.080;2023-10-19T00:30:34;7.00;99.90
6841;DHT22;3458;53.678;14.080;2023-10-19T00:33:02;7.00;99.90
6841;DHT22;3458;53.678;14.080;2023-10-19T00:35:41;7.00;99.90
6841;DHT22;3458;53.678;14.080;2023-10-19T00:38:26;7.00;99.90
6841;DHT22;3458;53.678;14.080;2023-10-19T00:41:00;7.00;99.90
6841;DHT22;3458;53.678;14.080;2023-10-19T00:43:33;7.00;99.90
6841;DHT22;3458;53.678;14.080;2023-10-19T00:46:03;7.00;99.90
6841;DHT22;3458;53.678;14.080;2023-10-19T00:48:32;7.00;99.90
6841;DHT22;3458;53.678;14.080;2023-10-19T00:51:00;7.00;99.90
6841;DHT22;3458;53.678;14.080;2023-10-19T00:53:37;7.00;99.90
6841;DHT22;3458;53.678;14.080;2023-10-19T00:56:07;7.00;99.90
6841;DHT22;3458;53.678;14.080;2023-10-19T00:58:35;7.00;99.90
6841;DHT22;3458;53.678;14.080;2023-10-19T01:01:02;7.00;99.90
6841;DHT22;3458;53.678;14.080;2023-10-19T01:03:31;7.00;99.90
6841;DHT22;3458;53.678;14.080;2023-10-19T01:06:01;7.00;99.90
6841;DHT22;3458;53.678;14.080;2023-10-19T01:08:31;7.00;99.90
6841;DHT22;3458;53.678;14.080;2023-10-19T01:11:08;7.00;99.90
6841;DHT22;3458;53.678;14.080;2023-10-19T01:13:37;7.00;99.90
6841;DHT22;3458;53.678;14.080;2023-10-19T01:16:03;7.00;99.90
6841;DHT22;3458;53.678;14.080;2023-10-19T01:18:30;7.00;99.90
6841;DHT22;3458;53.678;14.080;2023-10-19T01:20:58;7.00;99.90
6841;DHT22;3458;53.678;14.080;2023-10-19T01:23:32;7.00;99.90
6841;DHT22;3458;53.678;14.080;2023-10-19T01:26:00;7.00;99.90
6841;DHT22;3458;53.678;14.080;2023-10-19T01:28:32;7.00;99.90
6841;DHT22;3458;53.678;14.080;2023-10-19T01:31:13;7.00;99.90
6841;DHT22;3458;53.678;14.080;2023-10-19T01:33:54;7.00;99.90
6841;DHT22;3458;53.678;14.080;2023-10-19T01:36:23;7.00;99.90
6841;DHT22;3458;53.678;14.080;2023-10-19T01:38:50;7.00;99.90
6841;DHT22;3458;53.678;14.080;2023-10-19T01:41:19;6.90;99.90
6841;DHT22;3458;53.678;14.080;2023-10-19T01:43:47;7.00;99.90
6841;DHT22;3458;53.678;14.080;2023-10-19T01:46:18;7.00;99.90
6841;DHT22;3458;53.678;14.080;2023-10-19T01:48:48;7.00;99.90
6841;DHT22;3458;53.678;14.080;2023-10-19T01:51:15;7.00;99.90
6841;DHT22;3458;53.678;14.080;2023-10-19T01:53:41;7.00;99.90
6841;DHT22;3458;53.678;14.080;2023-10-19T01:56:11;7.10;99.90
6841;DHT22;3458;53.678;14.080;2023-10-19T01:58:38;7.00;99.90
6841;DHT22;3458;53.678;14.080;2023-10-19T02:01:08;7.00;99.90
6841;DHT22;3458;53.678;14.080;2023-10-19T02:03:36;7.00;99.90
6841;DHT22;3458;53.678;14.080;2023-10-19T02:06:03;7.00;99.90
6841;DHT22;3458;53.678;14.080;2023-10-19T02:08:36;7.00;99.90
6841;DHT22;3458;53.678;14.080;2023-10-19T02:11:05;7.10;99.90
6841;DHT22;3458;53.678;14.080;2023-10-19T02:13:39;7.00;99.90
6841;DHT22;3458;53.678;14.080;2023-10-19T02:16:05;7.10;99.90
6841;DHT22;3458;53.678;14.080;2023-10-19T02:18:32;7.10;99.90
6841;DHT22;3458;53.678;14.080;2023-10-19T02:21:00;7.10;99.90
6841;DHT22;3458;53.678;14.080;2023-10-19T02:23:27;7.10;99.90
6841;DHT22;3458;53.678;14.080;2023-10-19T02:25:53;7.10;99.90
6841;DHT22;3458;53.678;14.080;2023-10-19T02:28:18;7.10;99.90
6841;DHT22;3458;53.678;14.080;2023-10-19T02:30:51;7.10;99.90
6841;DHT22;3458;53.678;14.080;2023-10-19T02:33:17;7.10;99.90
6841;DHT22;3458;53.678;14.080;2023-10-19T02:35:42;7.10;99.90
6841;DHT22;3458;53.678;14.080;2023-10-19T02:38:08;7.10;99.90
6841;DHT22;3458;53.678;14.080;2023-10-19T02:40:34;7.10;99.90
6841;DHT22;3458;53.678;14.080;2023-10-19T02:43:00;7.10;99.90
6841;DHT22;3458;53.678;14.080;2023-10-19T02:45:28;7.10;99.90
6841;DHT22;3458;53.678;14.080;2023-10-19T02:47:57;7.10;99.90
6841;DHT22;3458;53.678;14.080;2023-10-19T02:50:23;7.10;99.90
6841;DHT22;3458;53.678;14.080;2023-10-19T02:52:52;7.10;99.90
6841;DHT22;3458;53.678;14.080;2023-10-19T02:55:18;7.20;99.90
6841;DHT22;3458;53.678;14.080;2023-10-19T02:57:48;7.20;99.90
6841;DHT22;3458;53.678;14.080;2023-10-19T03:00:15;7.20;99.90
6841;DHT22;3458;53.678;14.080;2023-10-19T03:02:45;7.20;99.90
6841;DHT22;3458;53.678;14.080;2023-10-19T03:05:10;7.20;99.90
6841;DHT22;3458;53.678;14.080;2023-10-19T03:07:41;7.20;99.90
6841;DHT22;3458;53.678;14.080;2023-10-19T03:10:07;7.10;99.90
6841;DHT22;3458;53.678;14.080;2023-10-19T03:12:32;7.10;99.90
6841;DHT22;3458;53.678;14.080;2023-10-19T03:14:58;7.10;99.90
6841;DHT22;3458;53.678;14.080;2023-10-19T03:17:25;7.10;99.90
6841;DHT22;3458;53.678;14.080;2023-10-19T03:19:52;7.20;99.90
6841;DHT22;3458;53.678;14.080;2023-10-19T03:22:17;7.20;99.90
6841;DHT22;3458;53.678;14.080;2023-10-19T03:24:44;7.20;99.90
6841;DHT22;3458;53.678;14.080;2023-10-19T03:27:12;7.20;99.90
6841;DHT22;3458;53.678;14.080;2023-10-19T03:29:41;7.20;99.90
6841;DHT22;3458;53.678;14.080;2023-10-19T03:32:11;7.20;99.90
6841;DHT22;3458;53.678;14.080;2023-10-19T03:34:37;7.20;99.90
6841;DHT22;3458;53.678;14.080;2023-10-19T03:37:03;7.20;99.90
6841;DHT22;3458;53.678;14.080;2023-10-19T03:39:34;7.20;99.90
6841;DHT22;3458;53.678;14.080;2023-10-19T03:42:03;7.20;99.90
6841;DHT22;3458;53.678;14.080;2023-10-19T03:44:34;7.20;99.90
6841;DHT22;3458;53.678;14.080;2023-10-19T03:47:18;7.20;99.90
6841;DHT22;3458;53.678;14.080;2023-10-19T03:49:45;7.20;99.90
6841;DHT22;3458;53.678;14.080;2023-10-19T03:52:12;7.20;99.90
6841;DHT22;3458;53.678;14.080;2023-10-19T03:54:38;7.20;99.90
6841;DHT22;3458;53.678;14.080;2023-10-19T03:57:13;7.20;99.90
6841;DHT22;3458;53.678;14.080;2023-10-19T03:59:45;7.20;99.90
6841;DHT22;3458;53.678;14.080;2023-10-19T04:02:12;7.20;99.90
6841;DHT22;3458;53.678;14.080;2023-10-19T04:04:47;7.20;99.90
6841;DHT22;3458;53.678;14.080;2023-10-19T04:07:18;7.10;99.90
6841;DHT22;3458;53.678;14.080;2023-10-19T04:09:50;7.20;99.90
6841;DHT22;3458;53.678;14.080;2023-10-19T04:12:27;7.20;99.90
6841;DHT22;3458;53.678;14.080;2023-10-19T04:14:57;7.20;99.90
6841;DHT22;3458;53.678;14.080;2023-10-19T04:17:23;7.20;99.90
6841;DHT22;3458;53.678;14.080;2023-10-19T04:19:49;7.20;99.90
6841;DHT22;3458;53.678;14.080;2023-10-19T04:22:17;7.10;99.90
6841;DHT22;3458;53.678;14.080;2023-10-19T04:24:51;7.20;99.90
6841;DHT22;3458;53.678;14.080;2023-10-19T04:27:16;7.10;99.90
6841;DHT22;3458;53.678;14.080;2023-10-19T04:29:42;7.10;99.90
6841;DHT22;3458;53.678;14.080;2023-10-19T04:32:09;7.20;99.90
6841;DHT22;3458;53.678;14.080;2023-10-19T04:34:35;7.20;99.90
6841;DHT22;3458;53.678;14.080;2023-10-19T04:37:02;7.20;99.90
6841;DHT22;3458;53.678;14.080;2023-10-19T04:39:28;7.20;99.90
6841;DHT22;3458;53.678;14.080;2023-10-19T04:41:55;7.20;99.90
6841;DHT22;3458;53.678;14.080;2023-10-19T04:44:21;7.20;99.90
6841;DHT22;3458;53.678;14.080;2023-10-19T04:46:48;7.20;99.90
6841;DHT22;3458;53.678;14.080;2023-10-19T04:49:13;7.20;99.90
6841;DHT22;3458;53.678;14.080;2023-10-19T04:51:39;7.20;99.90
6841;DHT22;3458;53.678;14.080;2023-10-19T04:54:05;7.20;99.90
6841;DHT22;3458;53.678;14.080;2023-10-19T04:56:33;7.20;99.90
6841;DHT22;3458;53.678;14.080;2023-10-19T04:59:01;7.20;99.90
6841;DHT22;3458;53.678;14.080;2023-10-19T05:01:27;7.20;99.90
6841;DHT22;3458;53.678;14.080;2023-10-19T05:03:53;7.20;99.90
6841;DHT22;3458;53.678;14.080;2023-10-19T05:06:19;7.20;99.90
6841;DHT22;3458;53.678;14.080;2023-10-19T05:08:44;7.20;99.90
6841;DHT22;3458;53.678;14.080;2023-10-19T05:11:12;7.20;99.90
6841;DHT22;3458;53.678;14.080;2023-10-19T05:13:37;7.20;99.90
6841;DHT22;3458;53.678;14.080;2023-10-19T05:16:04;7.20;99.90
6841;DHT22;3458;53.678;14.080;2023-10-19T05:18:30;7.20;99.90
6841;DHT22;3458;53.678;14.080;2023-10-19T05:20:55;7.30;99.90
6841;DHT22;3458;53.678;14.080;2023-10-19T05:23:24;7.30;99.90
6841;DHT22;3458;53.678;14.080;2023-10-19T05:25:52;7.20;99.90
6841;DHT22;3458;53.678;14.080;2023-10-19T05:28:19;7.20;99.90
6841;DHT22;3458;53.678;14.080;2023-10-19T05:30:44;7.30;99.90
6841;DHT22;3458;53.678;14.080;2023-10-19T05:33:10;7.30;99.90
6841;DHT22;3458;53.678;14.080;2023-10-19T05:35:36;7.30;99.90
6841;DHT22;3458;53.678;14.080;2023-10-19T05:38:06;7.30;99.90
6841;DHT22;3458;53.678;14.080;2023-10-19T05:40:32;7.30;99.90
6841;DHT22;3458;53.678;14.080;2023-10-19T05:42:57;7.30;99.90
6841;DHT22;3458;53.678;14.080;2023-10-19T05:45:23;7.30;99.90
6841;DHT22;3458;53.678;14.080;2023-10-19T05:47:49;7.30;99.90
6841;DHT22;3458;53.678;14.080;2023-10-19T05:50:15;7.30;99.90
6841;DHT22;3458;53.678;14.080;2023-10-19T05:52:42;7.30;99.90
6841;DHT22;3458;53.678;14.080;2023-10-19T05:55:08;7.30;99.90
6841;DHT22;3458;53.678;14.080;2023-10-19T05:57:35;7.30;99.90
6841;DHT22;3458;53.678;14.080;2023-10-19T06:00:01;7.40;99.90
6841;DHT22;3458;53.678;14.080;2023-10-19T06:02:26;7.40;99.90
6841;DHT22;3458;53.678;14.080;2023-10-19T06:04:52;7.30;99.90
6841;DHT22;3458;53.678;14.080;2023-10-19T06:07:17;7.40;99.90
6841;DHT22;3458;53.678;14.080;2023-10-19T06:09:43;7.30;99.90
6841;DHT22;3458;53.678;14.080;2023-10-19T06:12:08;7.30;99.90
6841;DHT22;3458;53.678;14.080;2023-10-19T06:14:34;7.40;99.90
6841;DHT22;3458;53.678;14.080;2023-10-19T06:17:00;7.40;99.90
6841;DHT22;3458;53.678;14.080;2023-10-19T06:19:26;7.40;99.90
6841;DHT22;3458;53.678;14.080;2023-10-19T06:21:52;7.40;99.90
6841;DHT22;3458;53.678;14.080;2023-10-19T06:24:17;7.40;99.90
6841;DHT22;3458;53.678;14.080;2023-10-19T06:26:44;7.40;99.90
6841;DHT22;3458;53.678;14.080;2023-10-19T06:29:09;7.40;99.90
6841;DHT22;3458;53.678;14.080;2023-10-19T06:31:36;7.40;99.90
6841;DHT22;3458;53.678;14.080;2023-10-19T06:34:01;7.40;99.90
6841;DHT22;3458;53.678;14.080;2023-10-19T06:36:28;7.40;99.90
6841;DHT22;3458;53.678;14.080;2023-10-19T06:38:54;7.40;99.90
6841;DHT22;3458;53.678;14.080;2023-10-19T06:41:20;7.50;99.90
6841;DHT22;3458;53.678;14.080;2023-10-19T06:43:46;7.50;99.90
6841;DHT22;3458;53.678;14.080;2023-10-19T06:46:12;7.50;99.90
6841;DHT22;3458;53.678;14.080;2023-10-19T06:48:38;7.50;99.90
6841;DHT22;3458;53.678;14.080;2023-10-19T06:51:04;7.50;99.90
6841;DHT22;3458;53.678;14.080;2023-10-19T06:53:30;7.50;99.90
6841;DHT22;3458;53.678;14.080;2023-10-19T06:55:56;7.50;99.90
6841;DHT22;3458;53.678;14.080;2023-10-19T06:58:22;7.60;99.90
6841;DHT22;3458;53.678;14.080;2023-10-19T07:00:52;7.60;99.90
6841;DHT22;3458;53.678;14.080;2023-10-19T07:03:30;7.60;99.90
6841;DHT22;3458;53.678;14.080;2023-10-19T07:05:56;7.60;99.90
6841;DHT22;3458;53.678;14.080;2023-10-19T07:08:23;7.60;99.90
6841;DHT22;3458;53.678;14.080;2023-10-19T07:10:49;7.60;99.90
6841;DHT22;3458;53.678;14.080;2023-10-19T07:13:17;7.60;99.90
6841;DHT22;3458;53.678;14.080;2023-10-19T07:15:45;7.60;99.90
6841;DHT22;3458;53.678;14.080;2023-10-19T07:18:11;7.60;99.90
6841;DHT22;3458;53.678;14.080;2023-10-19T07:20:36;7.70;99.90
6841;DHT22;3458;53.678;14.080;2023-10-19T07:23:04;7.70;99.90
6841;DHT22;3458;53.678;14.080;2023-10-19T07:25:36;7.70;99.90
6841;DHT22;3458;53.678;14.080;2023-10-19T07:28:11;7.70;99.90
6841;DHT22;3458;53.678;14.080;2023-10-19T07:30:38;7.70;99.90
6841;DHT22;3458;53.678;14.080;2023-10-19T07:33:04;7.70;99.90
6841;DHT22;3458;53.678;14.080;2023-10-19T07:35:34;7.70;99.90
6841;DHT22;3458;53.678;14.080;2023-10-19T07:38:00;7.70;99.90
6841;DHT22;3458;53.678;14.080;2023-10-19T07:40:27;7.70;99.90
6841;DHT22;3458;53.678;14.080;2023-10-19T07:42:53;7.70;99.90
6841;DHT22;3458;53.678;14.080;2023-10-19T07:45:20;7.70;99.90
6841;DHT22;3458;53.678;14.080;2023-10-19T07:47:45;7.70;99.90
6841;DHT22;3458;53.678;14.080;2023-10-19T07:50:12;7.80;99.90
6841;DHT22;3458;53.678;14.080;2023-10-19T07:52:44;7.80;99.90
6841;DHT22;3458;53.678;14.080;2023-10-19T07:55:11;7.80;99.90
6841;DHT22;3458;53.678;14.080;2023-10-19T07:57:37;7.80;99.90
6841;DHT22;3458;53.678;14.080;2023-10-19T08:00:06;7.80;99.90
6841;DHT22;3458;53.678;14.080;2023-10-19T08:02:34;7.90;99.90
6841;DHT22;3458;53.678;14.080;2023-10-19T08:05:00;7.90;99.90
6841;DHT22;3458;53.678;14.080;2023-10-19T08:07:28;7.90;99.90
6841;DHT22;3458;53.678;14.080;2023-10-19T08:09:53;7.90;99.90
6841;DHT22;3458;53.678;14.080;2023-10-19T08:12:20;7.90;99.90
6841;DHT22;3458;53.678;14.080;2023-10-19T08:14:48;7.90;99.90
6841;DHT22;3458;53.678;14.080;2023-10-19T08:17:14;7.90;99.90
6841;DHT22;3458;53.678;14.080;2023-10-19T08:19:40;7.90;99.90
6841;DHT22;3458;53.678;14.080;2023-10-19T08:22:06;7.90;99.90
6841;DHT22;3458;53.678;14.080;2023-10-19T08:24:32;8.00;99.90
6841;DHT22;3458;53.678;14.080;2023-10-19T08:27:00;8.00;99.90
6841;DHT22;3458;53.678;14.080;2023-10-19T08:29:26;8.00;99.90
6841;DHT22;3458;53.678;14.080;2023-10-19T08:31:52;8.00;99.90
6841;DHT22;3458;53.678;14.080;2023-10-19T08:34:17;8.00;99.90
6841;DHT22;3458;53.678;14.080;2023-10-19T08:36:44;8.00;99.90
6841;DHT22;3458;53.678;14.080;2023-10-19T08:39:10;8.00;99.90
6841;DHT22;3458;53.678;14.080;2023-10-19T08:41:39;8.10;99.90
6841;DHT22;3458;53.678;14.080;2023-10-19T08:44:06;8.10;99.90
6841;DHT22;3458;53.678;14.080;2023-10-19T08:46:40;8.10;99.90
6841;DHT22;3458;53.678;14.080;2023-10-19T08:49:11;8.10;99.90
6841;DHT22;3458;53.678;14.080;2023-10-19T08:51:38;8.10;99.90
6841;DHT22;3458;53.678;14.080;2023-10-19T08:54:05;8.20;99.90
6841;DHT22;3458;53.678;14.080;2023-10-19T08:56:31;8.20;99.90
6841;DHT22;3458;53.678;14.080;2023-10-19T08:59:01;8.20;99.90
6841;DHT22;3458;53.678;14.080;2023-10-19T09:01:28;8.20;99.90
6841;DHT22;3458;53.678;14.080;2023-10-19T09:03:57;8.20;99.90
6841;DHT22;3458;53.678;14.080;2023-10-19T09:06:24;8.20;99.90
6841;DHT22;3458;53.678;14.080;2023-10-19T09:08:49;8.20;99.90
6841;DHT22;3458;53.678;14.080;2023-10-19T09:11:15;8.30;99.90
6841;DHT22;3458;53.678;14.080;2023-10-19T09:13:49;8.30;99.90
6841;DHT22;3458;53.678;14.080;2023-10-19T09:16:16;8.30;99.90
6841;DHT22;3458;53.678;14.080;2023-10-19T09:18:42;8.40;99.90
6841;DHT22;3458;53.678;14.080;2023-10-19T09:21:08;8.40;99.90
6841;DHT22;3458;53.678;14.080;2023-10-19T09:23:37;8.50;99.90
6841;DHT22;3458;53.678;14.080;2023-10-19T09:26:03;8.50;99.90
6841;DHT22;3458;53.678;14.080;2023-10-19T09:28:31;8.50;99.90
6841;DHT22;3458;53.678;14.080;2023-10-19T09:31:00;8.50;99.90
6841;DHT22;3458;53.678;14.080;2023-10-19T09:33:26;8.60;99.90
6841;DHT22;3458;53.678;14.080;2023-10-19T09:35:53;8.60;99.90
6841;DHT22;3458;53.678;14.080;2023-10-19T09:38:20;8.60;99.90
6841;DHT22;3458;53.678;14.080;2023-10-19T09:40:51;8.60;99.90
6841;DHT22;3458;53.678;14.080;2023-10-19T09:43:43;8.70;99.90
6841;DHT22;3458;53.678;14.080;2023-10-19T09:46:10;8.70;99.90
6841;DHT22;3458;53.678;14.080;2023-10-19T09:48:47;8.70;99.90
6841;DHT22;3458;53.678;14.080;2023-10-19T09:51:18;8.80;99.90
6841;DHT22;3458;53.678;14.080;2023-10-19T09:53:48;8.80;99.90
6841;DHT22;3458;53.678;14.080;2023-10-19T09:56:21;8.90;99.90
6841;DHT22;3458;53.678;14.080;2023-10-19T09:58:55;9.00;99.90
6841;DHT22;3458;53.678;14.080;2023-10-19T10:01:23;9.00;99.90
6841;DHT22;3458;53.678;14.080;2023-10-19T10:03:50;9.10;99.90
6841;DHT22;3458;53.678;14.080;2023-10-19T10:06:29;9.10;99.90
6841;DHT22;3458;53.678;14.080;2023-10-19T10:08:55;9.10;99.90
6841;DHT22;3458;53.678;14.080;2023-10-19T10:11:26;9.10;99.90
6841;DHT22;3458;53.678;14.080;2023-10-19T10:13:53;9.10;99.90
6841;DHT22;3458;53.678;14.080;2023-10-19T10:16:22;9.10;99.90
6841;DHT22;3458;53.678;14.080;2023-10-19T10:18:49;9.10;99.90
6841;DHT22;3458;53.678;14.080;2023-10-19T10:21:22;9.10;99.90
6841;DHT22;3458;53.678;14.080;2023-10-19T10:23:59;9.20;99.90
6841;DHT22;3458;53.678;14.080;2023-10-19T10:26:27;9.20;99.90
6841;DHT22;3458;53.678;14.080;2023-10-19T10:29:14;9.20;99.90
6841;DHT22;3458;53.678;14.080;2023-10-19T10:31:48;9.20;99.90
6841;DHT22;3458;53.678;14.080;2023-10-19T10:37:03;9.20;99.90
6841;DHT22;3458;53.678;14.080;2023-10-19T10:39:30;9.20;99.90
6841;DHT22;3458;53.678;14.080;2023-10-19T10:41:57;9.30;99.90
6841;DHT22;3458;53.678;14.080;2023-10-19T10:44:44;9.30;99.90
6841;DHT22;3458;53.678;14.080;2023-10-19T10:47:11;9.30;99.90
6841;DHT22;3458;53.678;14.080;2023-10-19T10:52:27;9.40;99.90
6841;DHT22;3458;53.678;14.080;2023-10-19T10:55:13;9.40;99.90
6841;DHT22;3458;53.678;14.080;2023-10-19T10:57:40;9.50;99.90
6841;DHT22;3458;53.678;14.080;2023-10-19T11:00:14;9.60;99.90
6841;DHT22;3458;53.678;14.080;2023-10-19T11:02:45;9.60;99.90
6841;DHT22;3458;53.678;14.080;2023-10-19T11:05:16;9.70;99.90
6841;DHT22;3458;53.678;14.080;2023-10-19T11:08:09;9.70;99.90
6841;DHT22;3458;53.678;14.080;2023-10-19T11:10:47;9.80;99.90
6841;DHT22;3458;53.678;14.080;2023-10-19T11:13:17;9.80;99.90
6841;DHT22;3458;53.678;14.080;2023-10-19T11:15:52;9.90;99.90
6841;DHT22;3458;53.678;14.080;2023-10-19T11:18:41;10.00;99.90
6841;DHT22;3458;53.678;14.080;2023-10-19T11:21:11;10.10;99.90
6841;DHT22;3458;53.678;14.080;2023-10-19T11:23:41;10.10;99.90
6841;DHT22;3458;53.678;14.080;2023-10-19T11:26:11;10.10;99.90
6841;DHT22;3458;53.678;14.080;2023-10-19T11:28:38;10.00;99.90
6841;DHT22;3458;53.678;14.080;2023-10-19T11:31:20;9.90;99.90
6841;DHT22;3458;53.678;14.080;2023-10-19T11:33:50;9.90;99.90
6841;DHT22;3458;53.678;14.080;2023-10-19T11:36:17;9.80;99.90
6841;DHT22;3458;53.678;14.080;2023-10-19T11:38:47;9.80;99.90
6841;DHT22;3458;53.678;14.080;2023-10-19T11:41:14;9.70;99.90
6841;DHT22;3458;53.678;14.080;2023-10-19T11:43:40;9.70;99.90
6841;DHT22;3458;53.678;14.080;2023-10-19T11:46:07;9.70;99.90
6841;DHT22;3458;53.678;14.080;2023-10-19T11:48:33;9.60;99.90
6841;DHT22;3458;53.678;14.080;2023-10-19T11:51:01;9.60;99.90
6841;DHT22;3458;53.678;14.080;2023-10-19T11:53:33;9.60;99.90
6841;DHT22;3458;53.678;14.080;2023-10-19T11:56:10;9.60;99.90
6841;DHT22;3458;53.678;14.080;2023-10-19T11:58:38;9.60;99.90
6841;DHT22;3458;53.678;14.080;2023-10-19T12:01:06;9.60;99.90
6841;DHT22;3458;53.678;14.080;2023-10-19T12:03:34;9.60;99.90
6841;DHT22;3458;53.678;14.080;2023-10-19T12:06:04;9.60;99.90
6841;DHT22;3458;53.678;14.080;2023-10-19T12:08:35;9.60;99.90
6841;DHT22;3458;53.678;14.080;2023-10-19T12:11:05;9.70;99.90
6841;DHT22;3458;53.678;14.080;2023-10-19T12:13:40;9.70;99.90
6841;DHT22;3458;53.678;14.080;2023-10-19T12:16:07;9.70;99.90
6841;DHT22;3458;53.678;14.080;2023-10-19T12:18:32;9.70;99.90
6841;DHT22;3458;53.678;14.080;2023-10-19T12:20:57;9.70;99.90
6841;DHT22;3458;53.678;14.080;2023-10-19T12:23:25;9.70;99.90
6841;DHT22;3458;53.678;14.080;2023-10-19T12:25:51;9.70;99.90
6841;DHT22;3458;53.678;14.080;2023-10-19T12:28:17;9.70;99.90
6841;DHT22;3458;53.678;14.080;2023-10-19T12:30:42;9.60;99.90
6841;DHT22;3458;53.678;14.080;2023-10-19T12:33:09;9.70;99.90
6841;DHT22;3458;53.678;14.080;2023-10-19T12:35:41;9.70;99.90
6841;DHT22;3458;53.678;14.080;2023-10-19T12:38:11;9.70;99.90
6841;DHT22;3458;53.678;14.080;2023-10-19T12:40:45;9.70;99.90
6841;DHT22;3458;53.678;14.080;2023-10-19T12:43:12;9.80;99.90
6841;DHT22;3458;53.678;14.080;2023-10-19T12:45:39;9.80;99.90
6841;DHT22;3458;53.678;14.080;2023-10-19T12:48:05;9.90;99.90
6841;DHT22;3458;53.678;14.080;2023-10-19T12:50:31;9.90;99.90
6841;DHT22;3458;53.678;14.080;2023-10-19T12:52:57;9.90;99.90
6841;DHT22;3458;53.678;14.080;2023-10-19T12:55:22;10.00;99.90
6841;DHT22;3458;53.678;14.080;2023-10-19T12:57:52;10.00;99.90
6841;DHT22;3458;53.678;14.080;2023-10-19T13:00:18;10.00;99.90
6841;DHT22;3458;53.678;14.080;2023-10-19T13:02:54;10.00;99.90
6841;DHT22;3458;53.678;14.080;2023-10-19T13:05:31;9.90;99.90
6841;DHT22;3458;53.678;14.080;2023-10-19T13:07:57;9.90;99.90
6841;DHT22;3458;53.678;14.080;2023-10-19T13:10:33;9.90;99.90
6841;DHT22;3458;53.678;14.080;2023-10-19T13:13:00;9.90;99.90
6841;DHT22;3458;53.678;14.080;2023-10-19T13:15:31;9.80;99.90
6841;DHT22;3458;53.678;14.080;2023-10-19T13:17:57;9.80;99.90
6841;DHT22;3458;53.678;14.080;2023-10-19T13:20:24;9.80;99.90
6841;DHT22;3458;53.678;14.080;2023-10-19T13:22:51;9.70;99.90
6841;DHT22;3458;53.678;14.080;2023-10-19T13:25:17;9.70;99.90
6841;DHT22;3458;53.678;14.080;2023-10-19T13:27:44;9.60;99.90
6841;DHT22;3458;53.678;14.080;2023-10-19T13:30:11;9.60;99.90
6841;DHT22;3458;53.678;14.080;2023-10-19T13:32:37;9.60;99.90
6841;DHT22;3458;53.678;14.080;2023-10-19T13:35:04;9.60;99.90
6841;DHT22;3458;53.678;14.080;2023-10-19T13:37:29;9.60;99.90
6841;DHT22;3458;53.678;14.080;2023-10-19T13:39:55;9.50;99.90
6841;DHT22;3458;53.678;14.080;2023-10-19T13:42:21;9.60;99.90
6841;DHT22;3458;53.678;14.080;2023-10-19T13:44:49;9.60;99.90
6841;DHT22;3458;53.678;14.080;2023-10-19T13:47:15;9.60;99.90
6841;DHT22;3458;53.678;14.080;2023-10-19T13:49:41;9.50;99.90
6841;DHT22;3458;53.678;14.080;2023-10-19T13:52:07;9.50;99.90
6841;DHT22;3458;53.678;14.080;2023-10-19T13:54:37;9.50;99.90
6841;DHT22;3458;53.678;14.080;2023-10-19T13:57:03;9.50;99.90
6841;DHT22;3458;53.678;14.080;2023-10-19T13:59:29;9.50;99.90
6841;DHT22;3458;53.678;14.080;2023-10-19T14:01:55;9.50;99.90
6841;DHT22;3458;53.678;14.080;2023-10-19T14:04:20;9.50;99.90
6841;DHT22;3458;53.678;14.080;2023-10-19T14:06:46;9.50;99.90
6841;DHT22;3458;53.678;14.080;2023-10-19T14:09:14;9.50;99.90
6841;DHT22;3458;53.678;14.080;2023-10-19T14:11:40;9.50;99.90
6841;DHT22;3458;53.678;14.080;2023-10-19T14:14:06;9.50;99.90
6841;DHT22;3458;53.678;14.080;2023-10-19T14:16:32;9.50;99.90
6841;DHT22;3458;53.678;14.080;2023-10-19T14:18:57;9.40;99.90
6841;DHT22;3458;53.678;14.080;2023-10-19T14:21:23;9.40;99.90
6841;DHT22;3458;53.678;14.080;2023-10-19T14:23:52;9.40;99.90
6841;DHT22;3458;53.678;14.080;2023-10-19T14:26:18;9.40;99.90
6841;DHT22;3458;53.678;14.080;2023-10-19T14:28:44;9.40;99.90
6841;DHT22;3458;53.678;14.080;2023-10-19T14:31:10;9.50;99.90
6841;DHT22;3458;53.678;14.080;2023-10-19T14:33:36;9.50;99.90
6841;DHT22;3458;53.678;14.080;2023-10-19T14:36:04;9.50;99.90
6841;DHT22;3458;53.678;14.080;2023-10-19T14:38:29;9.50;99.90
6841;DHT22;3458;53.678;14.080;2023-10-19T14:40:55;9.50;99.90
6841;DHT22;3458;53.678;14.080;2023-10-19T14:43:21;9.50;99.90
6841;DHT22;3458;53.678;14.080;2023-10-19T14:45:46;9.50;99.90
6841;DHT22;3458;53.678;14.080;2023-10-19T14:48:12;9.40;99.90
6841;DHT22;3458;53.678;14.080;2023-10-19T14:50:38;9.40;99.90
6841;DHT22;3458;53.678;14.080;2023-10-19T14:53:04;9.40;99.90
6841;DHT22;3458;53.678;14.080;2023-10-19T14:55:29;9.40;99.90
6841;DHT22;3458;53.678;14.080;2023-10-19T14:57:55;9.40;99.90
6841;DHT22;3458;53.678;14.080;2023-10-19T15:00:24;9.40;99.90
6841;DHT22;3458;53.678;14.080;2023-10-19T15:02:56;9.40;99.90
6841;DHT22;3458;53.678;14.080;2023-10-19T15:05:27;9.40;99.90
6841;DHT22;3458;53.678;14.080;2023-10-19T15:07:53;9.30;99.90
6841;DHT22;3458;53.678;14.080;2023-10-19T15:10:26;9.30;99.90
6841;DHT22;3458;53.678;14.080;2023-10-19T15:12:53;9.30;99.90
6841;DHT22;3458;53.678;14.080;2023-10-19T15:15:19;9.30;99.90
6841;DHT22;3458;53.678;14.080;2023-10-19T15:17:45;9.30;99.90
6841;DHT22;3458;53.678;14.080;2023-10-19T15:20:13;9.20;99.90
6841;DHT22;3458;53.678;14.080;2023-10-19T15:22:43;9.20;99.90
6841;DHT22;3458;53.678;14.080;2023-10-19T15:25:10;9.20;99.90
6841;DHT22;3458;53.678;14.080;2023-10-19T15:27:37;9.20;99.90
6841;DHT22;3458;53.678;14.080;2023-10-19T15:30:03;9.20;99.90
6841;DHT22;3458;53.678;14.080;2023-10-19T15:32:31;9.20;99.90
6841;DHT22;3458;53.678;14.080;2023-10-19T15:34:57;9.20;99.90
6841;DHT22;3458;53.678;14.080;2023-10-19T15:37:22;9.10;99.90
6841;DHT22;3458;53.678;14.080;2023-10-19T15:39:49;9.10;99.90
6841;DHT22;3458;53.678;14.080;2023-10-19T15:42:14;9.10;99.90
6841;DHT22;3458;53.678;14.080;2023-10-19T15:44:40;9.10;99.90
6841;DHT22;3458;53.678;14.080;2023-10-19T15:47:06;9.10;99.90
6841;DHT22;3458;53.678;14.080;2023-10-19T15:49:47;9.00;99.90
6841;DHT22;3458;53.678;14.080;2023-10-19T15:52:14;9.10;99.90
6841;DHT22;3458;53.678;14.080;2023-10-19T15:54:39;9.00;99.90
6841;DHT22;3458;53.678;14.080;2023-10-19T15:57:06;9.00;99.90
6841;DHT22;3458;53.678;14.080;2023-10-19T15:59:31;9.00;99.90
6841;DHT22;3458;53.678;14.080;2023-10-19T16:01:57;9.00;99.90
6841;DHT22;3458;53.678;14.080;2023-10-19T16:04:23;9.00;99.90
6841;DHT22;3458;53.678;14.080;2023-10-19T16:06:48;9.00;99.90
6841;DHT22;3458;53.678;14.080;2023-10-19T16:09:14;9.00;99.90
6841;DHT22;3458;53.678;14.080;2023-10-19T16:11:41;9.00;99.90
6841;DHT22;3458;53.678;14.080;2023-10-19T16:14:06;9.00;99.90